createdAt,value
2022-12-28T00:01:31.425Z,101693.72
2022-12-28T00:04:03.232Z,101710.50
2022-12-28T00:06:30.238Z,101706.22
2022-12-28T00:08:57.815Z,101695.72
2022-12-28T00:11:30.830Z,101694.91
2022-12-28T00:14:01.514Z,101699.28
2022-12-28T00:16:31.116Z,101702.72
2022-12-28T00:18:59.608Z,101699.16
2022-12-28T00:21:27.317Z,101699.28
2022-12-28T00:23:57.940Z,101699.38
2022-12-28T00:26:26.433Z,101707.38
2022-12-28T00:28:56.855Z,101700.41
2022-12-28T00:31:28.431Z,101707.53
2022-12-28T00:33:55.150Z,101708.47
2022-12-28T00:36:21.878Z,101705.03
2022-12-28T00:38:48.509Z,101700.66
2022-12-28T00:41:15.137Z,101699.00
2022-12-28T00:43:41.726Z,101702.50
2022-12-28T00:46:08.654Z,101703.41
2022-12-28T00:48:35.352Z,101706.06
2022-12-28T00:51:07.829Z,101709.59
2022-12-28T00:53:34.970Z,101713.16
2022-12-28T00:56:16.367Z,101718.44
2022-12-28T00:58:43.703Z,101728.13
2022-12-28T01:01:22.241Z,101731.66
2022-12-28T01:03:49.481Z,101731.72
2022-12-28T01:06:18.506Z,101733.47
2022-12-28T01:08:45.102Z,101730.84
2022-12-28T01:11:20.819Z,101744.94
2022-12-28T01:13:49.082Z,101729.09
2022-12-28T01:16:30.946Z,101729.00
2022-12-28T01:18:59.809Z,101736.09
2022-12-28T01:21:29.755Z,101744.03
2022-12-28T01:24:00.627Z,101733.50
2022-12-28T01:26:28.206Z,101742.38
2022-12-28T01:28:55.010Z,101733.59
2022-12-28T01:31:22.096Z,101739.88
2022-12-28T01:33:49.323Z,101744.25
2022-12-28T01:36:19.894Z,101733.69
2022-12-28T01:38:47.113Z,101739.81
2022-12-28T01:41:16.759Z,101719.59
2022-12-28T01:44:07.971Z,101713.41
2022-12-28T01:46:39.968Z,101716.97
2022-12-28T01:49:20.229Z,101708.19
2022-12-28T01:52:10.029Z,101705.53
2022-12-28T01:54:45.372Z,101705.53
2022-12-28T01:57:14.197Z,101697.66
2022-12-28T01:59:43.629Z,101693.25
2022-12-28T02:02:12.399Z,101694.09
2022-12-28T02:04:39.323Z,101695.00
2022-12-28T02:07:05.915Z,101690.63
2022-12-28T02:10:40.444Z,101695.84
2022-12-28T02:12:39.674Z,101687.81
2022-12-28T02:15:06.725Z,101694.78
2022-12-28T02:17:34.264Z,101691.25
2022-12-28T02:20:01.078Z,101691.25
2022-12-28T02:22:40.043Z,101689.50
2022-12-28T02:25:52.198Z,101696.59
2022-12-28T02:28:47.811Z,101692.13
2022-12-28T02:31:21.250Z,101693.75
2022-12-28T02:34:02.419Z,101698.09
2022-12-28T02:36:35.309Z,101698.09
2022-12-28T02:39:25.271Z,101696.28
2022-12-28T02:41:53.173Z,101691.03
2022-12-28T02:44:40.388Z,101699.00
2022-12-28T02:47:32.705Z,101696.47
2022-12-28T02:50:07.959Z,101693.88
2022-12-28T02:52:50.843Z,101701.75
2022-12-28T02:55:54.570Z,101700.84
2022-12-28T02:59:22.516Z,101705.25
2022-12-28T03:01:56.654Z,101701.88
2022-12-28T03:04:44.796Z,101699.34
2022-12-28T03:07:43.456Z,101699.41
2022-12-28T03:10:41.714Z,101695.09
2022-12-28T03:13:34.350Z,101695.13
2022-12-28T03:16:07.180Z,101701.50
2022-12-28T03:18:54.557Z,101694.63
2022-12-28T03:21:40.903Z,101695.53
2022-12-28T03:24:29.194Z,101685.91
2022-12-28T03:27:16.988Z,101696.53
2022-12-28T03:30:08.346Z,101690.44
2022-12-28T03:32:35.251Z,101693.16
2022-12-28T03:35:01.986Z,101693.25
2022-12-28T03:37:32.944Z,101672.16
2022-12-28T03:40:12.017Z,101680.97
2022-12-28T03:43:04.481Z,101673.03
2022-12-28T03:45:56.414Z,101675.69
2022-12-28T03:48:25.193Z,101666.91
2022-12-28T03:50:53.215Z,101671.41
2022-12-28T03:53:24.881Z,101671.44
2022-12-28T03:55:51.494Z,101661.91
2022-12-28T03:58:19.305Z,101655.78
2022-12-28T04:00:45.858Z,101654.97
2022-12-28T04:03:12.451Z,101650.59
2022-12-28T04:05:39.054Z,101641.97
2022-12-28T04:08:05.611Z,101641.22
2022-12-28T04:10:32.153Z,101643.06
2022-12-28T04:12:58.695Z,101647.56
2022-12-28T04:15:25.267Z,101638.78
2022-12-28T04:17:51.785Z,101634.41
2022-12-28T04:20:18.353Z,101636.22
2022-12-28T04:22:45.025Z,101647.63
2022-12-28T04:25:11.700Z,101659.03
2022-12-28T04:27:38.262Z,101653.75
2022-12-28T04:30:05.594Z,101651.16
2022-12-28T04:32:32.180Z,101645.03
2022-12-28T04:34:58.764Z,101649.44
2022-12-28T04:37:25.305Z,101652.09
2022-12-28T04:39:55.123Z,101645.16
2022-12-28T04:42:24.935Z,101646.94
2022-12-28T04:44:51.822Z,101639.06
2022-12-28T04:47:18.438Z,101645.19
2022-12-28T04:49:45.041Z,101642.53
2022-12-28T04:52:11.783Z,101644.34
2022-12-28T04:54:38.409Z,101649.69
2022-12-28T04:57:05.069Z,101648.06
2022-12-28T04:59:31.624Z,101652.50
2022-12-28T05:01:58.288Z,101656.94
2022-12-28T05:04:24.944Z,101663.16
2022-12-28T05:06:51.543Z,101657.00
2022-12-28T05:09:19.511Z,101657.06
2022-12-28T05:11:46.178Z,101663.22
2022-12-28T05:14:12.753Z,101656.16
2022-12-28T05:16:39.523Z,101649.16
2022-12-28T05:19:06.214Z,101650.94
2022-12-28T05:21:32.886Z,101652.69
2022-12-28T05:23:59.709Z,101651.84
2022-12-28T05:26:29.120Z,101650.13
2022-12-28T05:28:56.829Z,101658.03
2022-12-28T05:31:24.004Z,101652.69
2022-12-28T05:33:51.053Z,101646.53
2022-12-28T05:36:24.303Z,101630.69
2022-12-28T05:38:52.696Z,101643.00
2022-12-28T05:41:25.860Z,101647.41
2022-12-28T05:43:52.833Z,101648.38
2022-12-28T05:46:32.402Z,101644.91
2022-12-28T05:48:59.987Z,101635.28
2022-12-28T05:51:31.434Z,101634.44
2022-12-28T05:54:00.050Z,101632.72
2022-12-28T05:56:29.318Z,101644.13
2022-12-28T05:58:58.736Z,101655.53
2022-12-28T06:01:28.391Z,101650.28
2022-12-28T06:03:57.781Z,101659.97
2022-12-28T06:06:25.427Z,101653.81
2022-12-28T06:08:52.452Z,101650.34
2022-12-28T06:11:24.701Z,101655.59
2022-12-28T06:13:52.042Z,101657.34
2022-12-28T06:16:21.400Z,101656.44
2022-12-28T06:18:49.011Z,101666.97
2022-12-28T06:21:30.032Z,101665.16
2022-12-28T06:24:01.280Z,101666.91
2022-12-28T06:26:30.228Z,101664.28
2022-12-28T06:28:57.352Z,101659.84
2022-12-28T06:31:27.031Z,101660.75
2022-12-28T06:33:56.200Z,101660.75
2022-12-28T06:36:43.281Z,101666.03
2022-12-28T06:39:12.686Z,101665.16
2022-12-28T06:41:40.156Z,101670.44
2022-12-28T06:44:09.203Z,101667.81
2022-12-28T06:46:37.198Z,101677.50
2022-12-28T06:49:03.990Z,101669.69
2022-12-28T06:51:38.704Z,101683.72
2022-12-28T06:54:05.423Z,101673.22
2022-12-28T06:56:34.148Z,101675.88
2022-12-28T06:59:03.642Z,101686.38
2022-12-28T07:01:38.963Z,101671.44
2022-12-28T07:04:07.870Z,101681.94
2022-12-28T07:06:37.919Z,101673.13
2022-12-28T07:09:07.360Z,101680.09
2022-12-28T07:11:34.146Z,101676.53
2022-12-28T07:14:00.751Z,101675.59
2022-12-28T07:18:55.935Z,101675.59
2022-12-28T07:21:28.516Z,101670.31
2022-12-28T07:23:56.206Z,101672.06
2022-12-28T07:26:25.805Z,101672.91
2022-12-28T07:28:55.061Z,101671.09
2022-12-28T07:31:30.739Z,101671.03
2022-12-28T07:33:59.380Z,101669.19
2022-12-28T07:36:28.042Z,101657.72
2022-12-28T07:38:55.058Z,101655.84
2022-12-28T07:41:28.070Z,101660.13
2022-12-28T07:43:55.028Z,101656.47
2022-12-28T07:46:24.460Z,101659.84
2022-12-28T07:48:51.889Z,101662.28
2022-12-28T07:51:22.906Z,101661.22
2022-12-28T07:53:51.657Z,101665.34
2022-12-28T07:56:19.760Z,101662.50
2022-12-28T07:58:51.792Z,101663.13
2022-12-28T08:01:20.240Z,101659.28
2022-12-28T08:03:47.394Z,101664.94
2022-12-28T08:06:19.964Z,101659.94
2022-12-28T08:08:48.885Z,101663.88
2022-12-28T08:11:18.388Z,101669.56
2022-12-28T08:13:47.395Z,101673.34
2022-12-28T08:16:15.601Z,101659.41
2022-12-28T08:18:42.651Z,101656.81
2022-12-28T08:21:13.743Z,101652.09
2022-12-28T08:23:40.704Z,101652.56
2022-12-28T08:26:09.268Z,101659.00
2022-12-28T08:28:36.623Z,101646.09
2022-12-28T08:31:14.997Z,101644.31
2022-12-28T08:33:42.515Z,101635.47
2022-12-28T08:36:10.436Z,101634.75
2022-12-28T08:38:38.451Z,101636.38
2022-12-28T08:41:07.651Z,101642.09
2022-12-28T08:43:34.903Z,101642.56
2022-12-28T08:46:04.211Z,101644.03
2022-12-28T08:48:31.279Z,101640.53
2022-12-28T08:51:06.938Z,101641.63
2022-12-28T08:53:33.868Z,101641.72
2022-12-28T08:56:14.844Z,101636.47
2022-12-28T08:58:43.343Z,101636.25
2022-12-28T09:01:19.859Z,101627.66
2022-12-28T09:03:49.422Z,101621.03
2022-12-28T09:06:18.990Z,101624.84
2022-12-28T09:09:04.871Z,101628.72
2022-12-28T09:11:32.326Z,101623.75
2022-12-28T09:13:58.944Z,101616.66
2022-12-28T09:16:27.852Z,101611.78
2022-12-28T09:18:56.558Z,101606.06
2022-12-28T09:21:25.558Z,101605.16
2022-12-28T09:23:52.359Z,101593.69
2022-12-28T09:26:21.105Z,101587.06
2022-12-28T09:28:59.864Z,101590.53
2022-12-28T09:31:29.515Z,101591.06
2022-12-28T09:36:49.205Z,101584.81
2022-12-28T09:39:18.980Z,101576.41
2022-12-28T09:41:49.262Z,101571.72
2022-12-28T09:44:34.598Z,101582.44
2022-12-28T09:47:12.565Z,101579.00
2022-12-28T09:49:44.922Z,101572.97
2022-12-28T09:52:14.396Z,101574.47
2022-12-28T09:54:41.838Z,101560.69
2022-12-28T09:57:15.266Z,101550.44
2022-12-28T09:59:42.340Z,101552.31
2022-12-28T10:02:33.759Z,101552.44
2022-12-28T10:05:00.406Z,101536.38
2022-12-28T10:07:27.002Z,101522.81
2022-12-28T10:09:53.826Z,101519.50
2022-12-28T10:12:24.392Z,101525.00
2022-12-28T10:14:53.145Z,101520.41
2022-12-28T10:17:26.708Z,101508.66
2022-12-28T10:19:56.725Z,101502.38
2022-12-28T10:22:25.562Z,101508.22
2022-12-28T10:24:52.963Z,101507.06
2022-12-28T10:27:30.968Z,101499.91
2022-12-28T10:30:01.600Z,101513.00
2022-12-28T10:32:48.808Z,101508.25
2022-12-28T10:35:49.215Z,101503.41
2022-12-28T10:38:24.422Z,101500.63
2022-12-28T10:41:07.008Z,101506.13
2022-12-28T10:43:36.851Z,101495.34
2022-12-28T10:46:07.499Z,101497.75
2022-12-28T10:48:39.262Z,101494.81
2022-12-28T10:51:18.569Z,101500.44
2022-12-28T10:53:47.735Z,101508.84
2022-12-28T10:56:14.246Z,101511.47
2022-12-28T10:58:42.858Z,101508.69
2022-12-28T11:01:30.216Z,101511.66
2022-12-28T11:03:56.957Z,101506.66
2022-12-28T11:06:35.700Z,101510.78
2022-12-28T11:09:20.670Z,101508.03
2022-12-28T11:11:49.802Z,101504.16
2022-12-28T11:14:30.814Z,101507.06
2022-12-28T11:16:58.166Z,101492.88
2022-12-28T11:19:25.990Z,101492.84
2022-12-28T11:21:53.480Z,101496.00
2022-12-28T11:24:25.663Z,101502.38
2022-12-28T11:26:52.670Z,101500.59
2022-12-28T11:29:19.713Z,101493.41
2022-12-28T11:31:55.294Z,101489.63
2022-12-28T11:34:26.750Z,101484.63
2022-12-28T11:36:53.963Z,101476.44
2022-12-28T11:39:26.572Z,101471.44
2022-12-28T11:42:28.011Z,101464.97
2022-12-28T11:44:48.930Z,101447.56
2022-12-28T11:47:15.458Z,101437.28
2022-12-28T11:49:43.549Z,101437.22
2022-12-28T11:52:15.867Z,101438.38
2022-12-28T11:54:55.544Z,101427.09
2022-12-28T11:57:35.604Z,101419.72
2022-12-28T12:00:22.180Z,101418.28
2022-12-28T12:02:58.042Z,101412.09
2022-12-28T12:05:39.486Z,101406.41
2022-12-28T12:08:12.117Z,101397.69
2022-12-28T12:10:41.601Z,101400.25
2022-12-28T12:13:26.479Z,101413.91
2022-12-28T12:16:04.125Z,101401.16
2022-12-28T12:18:46.176Z,101382.59
2022-12-28T12:21:22.193Z,101377.13
2022-12-28T12:23:52.780Z,101385.22
2022-12-28T12:26:29.607Z,101369.66
2022-12-28T12:29:02.747Z,101382.13
2022-12-28T12:31:35.541Z,101375.47
2022-12-28T12:34:24.202Z,101375.09
2022-12-28T12:37:11.271Z,101381.78
2022-12-28T12:39:56.295Z,101377.84
2022-12-28T12:42:31.921Z,101376.25
2022-12-28T12:45:22.945Z,101381.72
2022-12-28T12:47:58.281Z,101371.63
2022-12-28T12:50:46.999Z,101362.41
2022-12-28T12:53:16.544Z,101369.84
2022-12-28T12:56:10.325Z,101360.06
2022-12-28T12:58:55.424Z,101350.84
2022-12-28T13:01:24.711Z,101353.84
2022-12-28T13:03:53.915Z,101357.81
2022-12-28T13:06:24.473Z,101359.88
2022-12-28T13:09:05.413Z,101348.47
2022-12-28T13:11:37.589Z,101341.59
2022-12-28T13:14:05.409Z,101342.34
2022-12-28T13:16:32.685Z,101340.94
2022-12-28T13:19:00.718Z,101336.94
2022-12-28T13:21:29.868Z,101331.81
2022-12-28T13:23:57.499Z,101327.44
2022-12-28T13:26:29.580Z,101324.13
2022-12-28T13:28:58.493Z,101322.88
2022-12-28T13:31:36.168Z,101326.81
2022-12-28T13:34:23.475Z,101330.53
2022-12-28T13:36:56.780Z,101326.56
2022-12-28T13:39:28.309Z,101319.22
2022-12-28T13:41:57.858Z,101317.91
2022-12-28T13:44:42.906Z,101304.44
2022-12-28T13:47:15.927Z,101308.03
2022-12-28T13:49:49.628Z,101297.34
2022-12-28T13:52:23.227Z,101293.59
2022-12-28T13:54:55.366Z,101288.94
2022-12-28T14:00:11.252Z,101290.00
2022-12-28T14:02:41.522Z,101285.47
2022-12-28T14:05:15.312Z,101285.88
2022-12-28T14:07:42.225Z,101288.88
2022-12-28T14:10:11.000Z,101282.66
2022-12-28T14:12:38.893Z,101282.47
2022-12-28T14:15:07.111Z,101279.13
2022-12-28T14:17:34.947Z,101288.06
2022-12-28T14:20:01.684Z,101284.28
2022-12-28T14:22:36.078Z,101285.91
2022-12-28T14:25:08.943Z,101297.06
2022-12-28T14:27:39.863Z,101291.25
2022-12-28T14:30:08.857Z,101290.19
2022-12-28T14:32:42.396Z,101288.28
2022-12-28T14:35:18.242Z,101290.16
2022-12-28T14:37:46.599Z,101296.00
2022-12-28T14:40:26.452Z,101293.56
2022-12-28T14:42:54.871Z,101281.16
2022-12-28T14:46:07.614Z,101289.13
2022-12-28T14:48:38.298Z,101286.19
2022-12-28T14:51:17.686Z,101284.66
2022-12-28T14:53:45.563Z,101286.03
2022-12-28T14:56:18.706Z,101280.53
2022-12-28T14:58:58.623Z,101284.06
2022-12-28T15:01:44.982Z,101279.75
2022-12-28T15:04:39.537Z,101294.69
2022-12-28T15:07:09.185Z,101293.78
2022-12-28T15:09:36.626Z,101288.25
2022-12-28T15:12:20.493Z,101290.09
2022-12-28T15:14:47.579Z,101294.31
2022-12-28T15:17:14.215Z,101295.78
2022-12-28T15:19:42.783Z,101293.09
2022-12-28T15:22:09.481Z,101296.84
2022-12-28T15:24:36.323Z,101295.44
2022-12-28T15:27:03.497Z,101298.00
2022-12-28T15:32:16.773Z,101304.47
2022-12-28T15:34:43.383Z,101310.63
2022-12-28T15:37:09.922Z,101306.00
2022-12-28T15:39:36.757Z,101303.66
2022-12-28T15:42:03.447Z,101296.28
2022-12-28T15:44:30.002Z,101293.41
2022-12-28T15:46:56.644Z,101296.94
2022-12-28T15:49:23.267Z,101301.06
2022-12-28T15:51:49.992Z,101306.69
2022-12-28T15:54:16.669Z,101298.03
2022-12-28T15:56:43.255Z,101299.75
2022-12-28T15:59:14.425Z,101303.59
2022-12-28T16:01:43.412Z,101298.56
2022-12-28T16:04:10.729Z,101298.72
2022-12-28T16:06:43.830Z,101293.59
2022-12-28T16:09:12.017Z,101296.56
2022-12-28T16:11:38.591Z,101296.44
2022-12-28T16:14:07.251Z,101296.44
2022-12-28T16:16:38.426Z,101297.44
2022-12-28T16:19:06.911Z,101286.78
2022-12-28T16:21:33.799Z,101285.84
2022-12-28T16:24:00.612Z,101281.22
2022-12-28T16:26:28.026Z,101290.06
2022-12-28T16:28:54.665Z,101297.16
2022-12-28T16:31:32.598Z,101292.72
2022-12-28T16:34:07.844Z,101306.16
2022-12-28T16:36:34.998Z,101294.78
2022-12-28T16:39:04.629Z,101305.28
2022-12-28T16:41:36.482Z,101305.34
2022-12-28T16:44:12.307Z,101298.44
2022-12-28T16:46:39.073Z,101300.22
2022-12-28T16:49:05.695Z,101296.13
2022-12-28T16:51:32.543Z,101290.88
2022-12-28T16:53:59.110Z,101289.88
2022-12-28T16:56:25.886Z,101295.31
2022-12-28T16:58:56.820Z,101289.78
2022-12-28T17:01:23.783Z,101293.50
2022-12-28T17:03:51.918Z,101296.47
2022-12-28T17:06:19.076Z,101293.88
2022-12-28T17:08:45.711Z,101304.06
2022-12-28T17:11:12.737Z,101298.75
2022-12-28T17:13:39.595Z,101295.31
2022-12-28T17:16:07.031Z,101290.47
2022-12-28T17:18:33.770Z,101291.75
2022-12-28T17:21:04.902Z,101292.03
2022-12-28T17:23:33.527Z,101303.56
2022-12-28T17:26:00.101Z,101293.69
2022-12-28T17:28:26.740Z,101285.16
2022-12-28T17:31:06.744Z,101284.53
2022-12-28T17:33:38.936Z,101276.00
2022-12-28T17:36:06.757Z,101277.00
2022-12-28T17:38:33.300Z,101274.44
2022-12-28T17:40:59.847Z,101262.97
2022-12-28T17:43:26.413Z,101264.78
2022-12-28T17:45:54.620Z,101254.16
2022-12-28T17:48:26.958Z,101259.63
2022-12-28T17:50:53.569Z,101260.56
2022-12-28T17:53:20.096Z,101262.50
2022-12-28T17:55:46.847Z,101256.41
2022-12-28T17:58:13.421Z,101258.56
2022-12-28T18:00:39.984Z,101253.28
2022-12-28T18:03:06.685Z,101255.00
2022-12-28T18:05:34.601Z,101243.31
2022-12-28T18:08:01.186Z,101248.53
2022-12-28T18:10:27.787Z,101237.06
2022-12-28T18:12:55.687Z,101233.63
2022-12-28T18:15:22.270Z,101227.63
2022-12-28T18:17:48.887Z,101225.44
2022-12-28T18:20:16.158Z,101233.75
2022-12-28T18:22:42.710Z,101236.88
2022-12-28T18:25:09.651Z,101231.03
2022-12-28T18:27:36.725Z,101232.06
2022-12-28T18:30:03.796Z,101227.66
2022-12-28T18:32:30.387Z,101229.56
2022-12-28T18:34:56.993Z,101225.34
2022-12-28T18:37:23.586Z,101222.00
2022-12-28T18:39:50.130Z,101220.31
2022-12-28T18:42:18.419Z,101224.09
2022-12-28T18:44:46.266Z,101227.72
2022-12-28T18:47:13.520Z,101231.56
2022-12-28T18:49:45.480Z,101239.88
2022-12-28T18:52:15.069Z,101241.34
2022-12-28T18:54:41.739Z,101243.63
2022-12-28T18:57:09.086Z,101244.09
2022-12-28T18:59:35.888Z,101246.44
2022-12-28T19:02:06.954Z,101249.72
2022-12-28T19:04:35.189Z,101261.44
2022-12-28T19:07:01.872Z,101255.63
2022-12-28T19:09:28.444Z,101250.69
2022-12-28T19:11:55.490Z,101247.41
2022-12-28T19:14:22.205Z,101236.91
2022-12-28T19:16:48.763Z,101241.41
2022-12-28T19:19:17.222Z,101237.66
2022-12-28T19:21:44.111Z,101242.69
2022-12-28T19:24:18.714Z,101250.34
2022-12-28T19:26:46.785Z,101254.84
2022-12-28T19:29:15.508Z,101245.31
2022-12-28T19:31:42.339Z,101242.91
2022-12-28T19:34:09.048Z,101237.78
2022-12-28T19:36:35.574Z,101245.28
2022-12-28T19:39:02.157Z,101246.63
2022-12-28T19:41:28.764Z,101239.78
2022-12-28T19:43:55.482Z,101237.06
2022-12-28T19:46:31.139Z,101237.03
2022-12-28T19:49:02.143Z,101235.47
2022-12-28T19:51:31.722Z,101236.31
2022-12-28T19:54:00.960Z,101232.66
2022-12-28T19:56:27.704Z,101224.97
2022-12-28T19:58:59.456Z,101230.66
2022-12-28T20:01:30.352Z,101227.13
2022-12-28T20:03:57.228Z,101227.66
2022-12-28T20:06:27.150Z,101227.09
2022-12-28T20:09:01.902Z,101223.84
2022-12-28T20:11:29.060Z,101225.97
2022-12-28T20:14:02.110Z,101223.63
2022-12-28T20:16:30.954Z,101223.06
2022-12-28T20:18:57.667Z,101226.66
2022-12-28T20:21:25.824Z,101229.47
2022-12-28T20:23:54.119Z,101231.56
2022-12-28T20:26:22.460Z,101223.19
2022-12-28T20:28:50.103Z,101220.78
2022-12-28T20:31:16.768Z,101220.00
2022-12-28T20:33:44.116Z,101214.00
2022-12-28T20:36:22.144Z,101213.31
2022-12-28T20:38:49.320Z,101208.03
2022-12-28T20:41:38.960Z,101206.25
2022-12-28T20:44:11.754Z,101199.38
2022-12-28T20:46:38.517Z,101200.44
2022-12-28T20:49:05.632Z,101209.34
2022-12-28T20:51:32.534Z,101201.63
2022-12-28T20:53:59.115Z,101201.69
2022-12-28T20:56:25.833Z,101207.06
2022-12-28T20:58:52.352Z,101210.69
2022-12-28T21:01:19.476Z,101212.53
2022-12-28T21:03:46.477Z,101205.53
2022-12-28T21:06:13.394Z,101212.63
2022-12-28T21:08:40.412Z,101215.34
2022-12-28T21:11:07.128Z,101210.97
2022-12-28T21:13:34.697Z,101205.78
2022-12-28T21:16:06.087Z,101204.13
2022-12-28T21:18:33.355Z,101201.63
2022-12-28T21:21:00.304Z,101204.41
2022-12-28T21:23:28.082Z,101205.38
2022-12-28T21:26:06.605Z,101206.41
2022-12-28T21:28:34.895Z,101206.44
2022-12-28T21:31:03.818Z,101201.19
2022-12-28T21:33:31.779Z,101206.50
2022-12-28T21:36:06.456Z,101201.28
2022-12-28T21:38:33.123Z,101199.56
2022-12-28T21:41:06.598Z,101192.69
2022-12-28T21:43:33.466Z,101195.56
2022-12-28T21:46:03.256Z,101195.56
2022-12-28T21:48:35.645Z,101181.44
2022-12-28T21:51:28.269Z,101185.03
2022-12-28T21:53:55.376Z,101190.41
2022-12-28T21:56:22.188Z,101187.69
2022-12-28T21:58:50.031Z,101179.84
2022-12-28T22:01:35.648Z,101171.06
2022-12-28T22:04:23.294Z,101175.44
2022-12-28T22:06:49.880Z,101165.00
2022-12-28T22:09:34.860Z,101175.56
2022-12-28T22:12:20.030Z,101159.72
2022-12-28T22:14:46.481Z,101166.84
2022-12-28T22:17:14.687Z,101176.63
2022-12-28T22:19:41.636Z,101166.16
2022-12-28T22:22:08.283Z,101162.75
2022-12-28T22:24:34.876Z,101164.59
2022-12-28T22:27:01.465Z,101163.75
2022-12-28T22:29:28.043Z,101162.25
2022-12-28T22:31:54.741Z,101157.00
2022-12-28T22:34:21.433Z,101153.53
2022-12-28T22:36:48.055Z,101147.50
2022-12-28T22:39:14.676Z,101144.88
2022-12-28T22:41:41.243Z,101138.84
2022-12-28T22:44:09.840Z,101134.50
2022-12-28T22:46:36.456Z,101133.69
2022-12-28T22:49:03.170Z,101132.81
2022-12-28T22:51:29.826Z,101128.38
2022-12-28T22:53:56.363Z,101117.94
2022-12-28T22:56:22.975Z,101121.53
2022-12-28T22:58:49.515Z,101128.66
2022-12-28T23:01:18.667Z,101124.34
2022-12-28T23:03:47.270Z,101119.97
2022-12-28T23:06:16.667Z,101113.00
2022-12-28T23:08:43.456Z,101118.34
2022-12-28T23:11:34.021Z,101114.88
2022-12-28T23:14:21.357Z,101123.69
2022-12-28T23:16:48.548Z,101114.09
2022-12-28T23:19:34.837Z,101096.56
2022-12-28T23:22:21.416Z,101090.41
2022-12-28T23:25:06.376Z,101088.69
2022-12-28T23:27:39.614Z,101098.41
2022-12-28T23:30:09.781Z,101097.47
2022-12-28T23:32:36.375Z,101090.38
2022-12-28T23:35:03.986Z,101093.81
2022-12-28T23:37:31.176Z,101084.19
2022-12-28T23:39:57.754Z,101081.66
2022-12-28T23:42:24.317Z,101082.75
2022-12-28T23:44:50.862Z,101077.47
2022-12-28T23:47:18.644Z,101074.84
2022-12-28T23:49:45.664Z,101073.13
2022-12-28T23:52:12.859Z,101073.16
2022-12-28T23:54:39.500Z,101082.09
2022-12-28T23:57:06.163Z,101069.88
2022-12-28T23:59:32.737Z,101076.00
